sensor_id;sensor_type;location;lat;lon;timestamp;pressure;altitude;pressure_sealevel;temperature;humidity
8051;BME280;4068;42.158;24.732;2023-04-23T00:01:06;99689.16;;;11.65;100.00
8051;BME280;4068;42.158;24.732;2023-04-23T00:03:33;99679.41;;;11.54;100.00
8051;BME280;4068;42.158;24.732;2023-04-23T00:06:06;99661.25;;;11.38;100.00
8051;BME280;4068;42.158;24.732;2023-04-23T00:08:34;99687.53;;;11.41;100.00
8051;BME280;4068;42.158;24.732;2023-04-23T00:11:01;99681.31;;;11.31;100.00
8051;BME280;4068;42.158;24.732;2023-04-23T00:13:26;99685.31;;;11.25;100.00
8051;BME280;4068;42.158;24.732;2023-04-23T00:15:52;99650.00;;;11.02;100.00
8051;BME280;4068;42.158;24.732;2023-04-23T00:18:18;99680.00;;;11.14;100.00
8051;BME280;4068;42.158;24.732;2023-04-23T00:20:44;99686.09;;;11.04;100.00
8051;BME280;4068;42.158;24.732;2023-04-23T00:23:09;99678.59;;;10.98;100.00
8051;BME280;4068;42.158;24.732;2023-04-23T00:25:35;99696.47;;;10.96;100.00
8051;BME280;4068;42.158;24.732;2023-04-23T00:28:00;99681.88;;;10.91;100.00
8051;BME280;4068;42.158;24.732;2023-04-23T00:30:26;99696.47;;;10.96;100.00
8051;BME280;4068;42.158;24.732;2023-04-23T00:32:51;99691.16;;;10.96;100.00
8051;BME280;4068;42.158;24.732;2023-04-23T00:35:16;99692.47;;;11.02;100.00
8051;BME280;4068;42.158;24.732;2023-04-23T00:37:42;99667.16;;;10.86;100.00
8051;BME280;4068;42.158;24.732;2023-04-23T00:40:08;99681.97;;;11.00;100.00
8051;BME280;4068;42.158;24.732;2023-04-23T00:42:36;99697.53;;;11.05;100.00
8051;BME280;4068;42.158;24.732;2023-04-23T00:45:04;99694.25;;;11.01;100.00
8051;BME280;4068;42.158;24.732;2023-04-23T00:47:30;99702.22;;;11.01;100.00
8051;BME280;4068;42.158;24.732;2023-04-23T00:49:55;99687.88;;;10.81;100.00
8051;BME280;4068;42.158;24.732;2023-04-23T00:52:22;99698.03;;;10.87;100.00
8051;BME280;4068;42.158;24.732;2023-04-23T00:54:47;99699.59;;;10.79;100.00
8051;BME280;4068;42.158;24.732;2023-04-23T00:57:13;99707.91;;;10.85;100.00
8051;BME280;4068;42.158;24.732;2023-04-23T00:59:39;99711.88;;;10.91;100.00
8051;BME280;4068;42.158;24.732;2023-04-23T01:02:04;99701.16;;;10.93;100.00
8051;BME280;4068;42.158;24.732;2023-04-23T01:04:30;99698.03;;;10.99;100.00
8051;BME280;4068;42.158;24.732;2023-04-23T01:06:57;99691.13;;;11.08;100.00
8051;BME280;4068;42.158;24.732;2023-04-23T01:09:24;99712.22;;;11.32;100.00
8051;BME280;4068;42.158;24.732;2023-04-23T01:11:52;99721.09;;;11.42;100.00
8051;BME280;4068;42.158;24.732;2023-04-23T01:14:17;99723.03;;;11.40;100.00
8051;BME280;4068;42.158;24.732;2023-04-23T01:16:43;99716.28;;;11.47;100.00
8051;BME280;4068;42.158;24.732;2023-04-23T01:19:09;99719.63;;;11.49;100.00
8051;BME280;4068;42.158;24.732;2023-04-23T01:21:36;99716.75;;;11.41;100.00
8051;BME280;4068;42.158;24.732;2023-04-23T01:24:03;99721.09;;;11.42;100.00
8051;BME280;4068;42.158;24.732;2023-04-23T01:26:29;99720.59;;;11.48;100.00
8051;BME280;4068;42.158;24.732;2023-04-23T01:28:54;99723.63;;;11.44;100.00
8051;BME280;4068;42.158;24.732;2023-04-23T01:31:20;99720.16;;;11.32;100.00
8051;BME280;4068;42.158;24.732;2023-04-23T01:33:48;99730.69;;;11.22;100.00
8051;BME280;4068;42.158;24.732;2023-04-23T01:36:15;99706.31;;;11.05;100.00
8051;BME280;4068;42.158;24.732;2023-04-23T01:38:41;99732.28;;;11.02;100.00
8051;BME280;4068;42.158;24.732;2023-04-23T01:41:06;99721.41;;;10.82;100.00
8051;BME280;4068;42.158;24.732;2023-04-23T01:43:32;99719.00;;;10.68;100.00
8051;BME280;4068;42.158;24.732;2023-04-23T01:45:58;99717.06;;;10.47;100.00
8051;BME280;4068;42.158;24.732;2023-04-23T01:48:24;99725.00;;;10.47;100.00
8051;BME280;4068;42.158;24.732;2023-04-23T01:50:52;99725.72;;;10.38;100.00
8051;BME280;4068;42.158;24.732;2023-04-23T01:53:18;99731.59;;;10.30;100.00
8051;BME280;4068;42.158;24.732;2023-04-23T01:55:47;99725.28;;;10.20;100.00
8051;BME280;4068;42.158;24.732;2023-04-23T01:58:12;99727.09;;;10.19;100.00
8051;BME280;4068;42.158;24.732;2023-04-23T02:00:38;99700.53;;;9.97;100.00
8051;BME280;4068;42.158;24.732;2023-04-23T02:03:03;99725.13;;;10.10;100.00
8051;BME280;4068;42.158;24.732;2023-04-23T02:05:29;99720.31;;;10.04;100.00
8051;BME280;4068;42.158;24.732;2023-04-23T02:07:55;99720.16;;;9.94;100.00
8051;BME280;4068;42.158;24.732;2023-04-23T02:10:21;99728.56;;;9.88;100.00
8051;BME280;4068;42.158;24.732;2023-04-23T02:12:47;99700.34;;;9.76;100.00
8051;BME280;4068;42.158;24.732;2023-04-23T02:15:14;99687.56;;;9.70;100.00
8051;BME280;4068;42.158;24.732;2023-04-23T02:17:39;99711.84;;;9.88;100.00
8051;BME280;4068;42.158;24.732;2023-04-23T02:20:07;99713.22;;;9.80;100.00
8051;BME280;4068;42.158;24.732;2023-04-23T02:22:35;99676.09;;;9.58;100.00
8051;BME280;4068;42.158;24.732;2023-04-23T02:25:01;99728.69;;;9.87;100.00
8051;BME280;4068;42.158;24.732;2023-04-23T02:27:26;99726.88;;;9.87;100.00
8051;BME280;4068;42.158;24.732;2023-04-23T02:29:52;99705.75;;;9.74;100.00
8051;BME280;4068;42.158;24.732;2023-04-23T02:32:17;99723.78;;;9.93;100.00
8051;BME280;4068;42.158;24.732;2023-04-23T02:34:43;99728.09;;;9.94;100.00
8051;BME280;4068;42.158;24.732;2023-04-23T02:37:09;99727.16;;;9.95;100.00
8051;BME280;4068;42.158;24.732;2023-04-23T02:39:34;99722.78;;;9.94;100.00
8051;BME280;4068;42.158;24.732;2023-04-23T02:42:00;99715.91;;;9.92;100.00
8051;BME280;4068;42.158;24.732;2023-04-23T02:44:26;99697.56;;;9.77;100.00
8051;BME280;4068;42.158;24.732;2023-04-23T02:46:51;99723.78;;;9.93;100.00
8051;BME280;4068;42.158;24.732;2023-04-23T02:49:17;99699.78;;;9.83;100.00
8051;BME280;4068;42.158;24.732;2023-04-23T02:51:44;99710.38;;;9.83;100.00
8051;BME280;4068;42.158;24.732;2023-04-23T02:54:10;99730.47;;;9.86;100.00
8051;BME280;4068;42.158;24.732;2023-04-23T02:56:36;99731.09;;;9.90;100.00
8051;BME280;4068;42.158;24.732;2023-04-23T02:59:01;99714.66;;;9.73;100.00
8051;BME280;4068;42.158;24.732;2023-04-23T03:01:27;99703.69;;;9.66;100.00
8051;BME280;4068;42.158;24.732;2023-04-23T03:03:53;99732.63;;;9.81;100.00
8051;BME280;4068;42.158;24.732;2023-04-23T03:06:20;99739.13;;;9.77;100.00
8051;BME280;4068;42.158;24.732;2023-04-23T03:08:45;99744.66;;;9.74;100.00
8051;BME280;4068;42.158;24.732;2023-04-23T03:11:10;99744.88;;;9.71;100.00
8051;BME280;4068;42.158;24.732;2023-04-23T03:13:36;99751.34;;;9.66;100.00
8051;BME280;4068;42.158;24.732;2023-04-23T03:16:01;99723.56;;;9.48;100.00
8051;BME280;4068;42.158;24.732;2023-04-23T03:18:27;99750.94;;;9.60;100.00
8051;BME280;4068;42.158;24.732;2023-04-23T03:20:52;99756.00;;;9.63;100.00
8051;BME280;4068;42.158;24.732;2023-04-23T03:23:17;99756.34;;;9.58;100.00
8051;BME280;4068;42.158;24.732;2023-04-23T03:25:43;99762.59;;;9.57;100.00
8051;BME280;4068;42.158;24.732;2023-04-23T03:28:08;99725.53;;;9.33;100.00
8051;BME280;4068;42.158;24.732;2023-04-23T03:30:34;99744.13;;;9.44;100.00
8051;BME280;4068;42.158;24.732;2023-04-23T03:33:00;99769.72;;;9.57;100.00
8051;BME280;4068;42.158;24.732;2023-04-23T03:35:28;99768.00;;;9.56;100.00
8051;BME280;4068;42.158;24.732;2023-04-23T03:37:54;99772.69;;;9.52;100.00
8051;BME280;4068;42.158;24.732;2023-04-23T03:40:19;99770.66;;;9.56;100.00
8051;BME280;4068;42.158;24.732;2023-04-23T03:42:45;99747.06;;;9.53;100.00
8051;BME280;4068;42.158;24.732;2023-04-23T03:45:11;99783.34;;;9.63;100.00
8051;BME280;4068;42.158;24.732;2023-04-23T03:47:40;99745.28;;;9.40;100.00
8051;BME280;4068;42.158;24.732;2023-04-23T03:50:06;99775.72;;;9.59;100.00
8051;BME280;4068;42.158;24.732;2023-04-23T03:52:32;99775.78;;;9.46;100.00
8051;BME280;4068;42.158;24.732;2023-04-23T03:54:57;99766.59;;;9.39;100.00
8051;BME280;4068;42.158;24.732;2023-04-23T03:57:23;99775.28;;;9.41;100.00
8051;BME280;4068;42.158;24.732;2023-04-23T03:59:48;99779.06;;;9.49;100.00
8051;BME280;4068;42.158;24.732;2023-04-23T04:02:15;99769.19;;;9.52;100.00
8051;BME280;4068;42.158;24.732;2023-04-23T04:04:40;99781.03;;;9.59;100.00
8051;BME280;4068;42.158;24.732;2023-04-23T04:07:07;99782.16;;;9.67;100.00
8051;BME280;4068;42.158;24.732;2023-04-23T04:09:36;99757.06;;;9.60;100.00
8051;BME280;4068;42.158;24.732;2023-04-23T04:12:02;99783.91;;;9.80;100.00
8051;BME280;4068;42.158;24.732;2023-04-23T04:14:29;99765.25;;;9.81;100.00
8051;BME280;4068;42.158;24.732;2023-04-23T04:16:55;99783.44;;;10.10;100.00
8051;BME280;4068;42.158;24.732;2023-04-23T04:19:21;99785.56;;;10.29;100.00
8051;BME280;4068;42.158;24.732;2023-04-23T04:21:46;99766.44;;;10.37;100.00
8051;BME280;4068;42.158;24.732;2023-04-23T04:24:12;99801.72;;;10.62;100.00
8051;BME280;4068;42.158;24.732;2023-04-23T04:26:37;99793.03;;;10.71;100.00
8051;BME280;4068;42.158;24.732;2023-04-23T04:29:03;99808.16;;;11.04;100.00
8051;BME280;4068;42.158;24.732;2023-04-23T04:31:29;99786.19;;;11.02;100.00
8051;BME280;4068;42.158;24.732;2023-04-23T04:33:55;99819.84;;;11.36;100.00
8051;BME280;4068;42.158;24.732;2023-04-23T04:36:21;99829.13;;;11.53;100.00
8051;BME280;4068;42.158;24.732;2023-04-23T04:38:49;99821.47;;;11.71;100.00
8051;BME280;4068;42.158;24.732;2023-04-23T04:41:16;99840.06;;;11.94;100.00
8051;BME280;4068;42.158;24.732;2023-04-23T04:43:42;99830.34;;;12.04;100.00
8051;BME280;4068;42.158;24.732;2023-04-23T04:46:07;99847.09;;;12.27;100.00
8051;BME280;4068;42.158;24.732;2023-04-23T04:48:36;99828.84;;;12.22;100.00
8051;BME280;4068;42.158;24.732;2023-04-23T04:51:01;99860.66;;;12.45;100.00
8051;BME280;4068;42.158;24.732;2023-04-23T04:53:26;99869.59;;;12.44;100.00
8051;BME280;4068;42.158;24.732;2023-04-23T04:55:52;99836.97;;;12.42;100.00
8051;BME280;4068;42.158;24.732;2023-04-23T04:58:17;99848.28;;;12.55;100.00
8051;BME280;4068;42.158;24.732;2023-04-23T05:00:43;99868.41;;;12.90;100.00
8051;BME280;4068;42.158;24.732;2023-04-23T05:03:08;99874.75;;;12.99;100.00
8051;BME280;4068;42.158;24.732;2023-04-23T05:05:34;99861.84;;;12.94;100.00
8051;BME280;4068;42.158;24.732;2023-04-23T05:07:59;99874.94;;;13.28;100.00
8051;BME280;4068;42.158;24.732;2023-04-23T05:10:27;99873.63;;;13.23;100.00
8051;BME280;4068;42.158;24.732;2023-04-23T05:12:55;99870.50;;;13.39;100.00
8051;BME280;4068;42.158;24.732;2023-04-23T05:15:20;99870.44;;;13.29;100.00
8051;BME280;4068;42.158;24.732;2023-04-23T05:17:46;99841.81;;;13.21;100.00
8051;BME280;4068;42.158;24.732;2023-04-23T05:20:11;99867.56;;;13.42;100.00
8051;BME280;4068;42.158;24.732;2023-04-23T05:22:38;99871.13;;;13.52;100.00
8051;BME280;4068;42.158;24.732;2023-04-23T05:25:04;99859.09;;;13.68;100.00
8051;BME280;4068;42.158;24.732;2023-04-23T05:27:30;99857.50;;;13.96;100.00
8051;BME280;4068;42.158;24.732;2023-04-23T05:29:56;99849.25;;;14.28;100.00
8051;BME280;4068;42.158;24.732;2023-04-23T05:32:21;99876.66;;;14.70;99.40
8051;BME280;4068;42.158;24.732;2023-04-23T05:34:47;99871.38;;;15.07;96.58
8051;BME280;4068;42.158;24.732;2023-04-23T05:37:12;99843.56;;;15.00;94.33
8051;BME280;4068;42.158;24.732;2023-04-23T05:39:37;99865.09;;;15.36;94.45
8051;BME280;4068;42.158;24.732;2023-04-23T05:42:03;99868.50;;;15.94;92.53
8051;BME280;4068;42.158;24.732;2023-04-23T05:44:29;99845.81;;;15.98;88.88
8051;BME280;4068;42.158;24.732;2023-04-23T05:46:55;99844.59;;;16.10;86.77
8051;BME280;4068;42.158;24.732;2023-04-23T05:49:20;99866.16;;;15.53;88.52
8051;BME280;4068;42.158;24.732;2023-04-23T05:51:45;99869.84;;;15.80;88.93
8051;BME280;4068;42.158;24.732;2023-04-23T05:54:11;99872.75;;;16.32;87.73
8051;BME280;4068;42.158;24.732;2023-04-23T05:56:36;99864.84;;;16.49;86.83
8051;BME280;4068;42.158;24.732;2023-04-23T05:59:02;99873.19;;;16.82;85.53
8051;BME280;4068;42.158;24.732;2023-04-23T06:01:27;99867.72;;;16.91;85.00
8051;BME280;4068;42.158;24.732;2023-04-23T06:03:53;99863.16;;;16.66;85.38
8051;BME280;4068;42.158;24.732;2023-04-23T06:06:18;99873.63;;;16.77;82.17
8051;BME280;4068;42.158;24.732;2023-04-23T06:08:44;99870.66;;;16.80;81.87
8051;BME280;4068;42.158;24.732;2023-04-23T06:11:10;99875.16;;;16.98;79.64
8051;BME280;4068;42.158;24.732;2023-04-23T06:13:35;99872.47;;;16.98;80.76
8051;BME280;4068;42.158;24.732;2023-04-23T06:16:06;99850.72;;;16.83;80.60
8051;BME280;4068;42.158;24.732;2023-04-23T06:18:32;99873.78;;;17.20;81.94
8051;BME280;4068;42.158;24.732;2023-04-23T06:20:57;99876.03;;;17.33;80.70
8051;BME280;4068;42.158;24.732;2023-04-23T06:23:23;99872.28;;;17.25;80.64
8051;BME280;4068;42.158;24.732;2023-04-23T06:25:48;99853.03;;;17.22;81.00
8051;BME280;4068;42.158;24.732;2023-04-23T06:28:14;99876.16;;;17.66;80.10
8051;BME280;4068;42.158;24.732;2023-04-23T06:30:40;99874.03;;;17.35;81.91
8051;BME280;4068;42.158;24.732;2023-04-23T06:33:07;99865.06;;;17.18;82.25
8051;BME280;4068;42.158;24.732;2023-04-23T06:35:33;99876.81;;;17.59;81.65
8051;BME280;4068;42.158;24.732;2023-04-23T06:37:59;99871.06;;;17.89;80.60
8051;BME280;4068;42.158;24.732;2023-04-23T06:40:24;99869.28;;;17.55;80.58
8051;BME280;4068;42.158;24.732;2023-04-23T06:42:49;99865.03;;;17.79;79.67
8051;BME280;4068;42.158;24.732;2023-04-23T06:45:15;99871.72;;;17.74;78.59
8051;BME280;4068;42.158;24.732;2023-04-23T06:47:41;99880.13;;;17.88;78.63
8051;BME280;4068;42.158;24.732;2023-04-23T06:50:07;99860.88;;;16.89;81.13
8051;BME280;4068;42.158;24.732;2023-04-23T06:52:32;99879.50;;;17.59;81.56
8051;BME280;4068;42.158;24.732;2023-04-23T06:54:58;99876.09;;;17.84;79.71
8051;BME280;4068;42.158;24.732;2023-04-23T06:57:24;99876.66;;;18.04;80.05
8051;BME280;4068;42.158;24.732;2023-04-23T06:59:50;99880.78;;;18.49;77.14
8051;BME280;4068;42.158;24.732;2023-04-23T07:02:15;99865.81;;;18.38;75.98
8051;BME280;4068;42.158;24.732;2023-04-23T07:04:41;99875.59;;;18.89;75.80
8051;BME280;4068;42.158;24.732;2023-04-23T07:07:06;99875.59;;;18.97;75.34
8051;BME280;4068;42.158;24.732;2023-04-23T07:09:31;99870.06;;;18.99;74.33
8051;BME280;4068;42.158;24.732;2023-04-23T07:11:57;99878.94;;;19.16;74.99
8051;BME280;4068;42.158;24.732;2023-04-23T07:14:22;99868.97;;;19.33;73.55
8051;BME280;4068;42.158;24.732;2023-04-23T07:16:48;99853.16;;;19.38;72.76
8051;BME280;4068;42.158;24.732;2023-04-23T07:19:13;99846.38;;;18.86;73.18
8051;BME280;4068;42.158;24.732;2023-04-23T07:21:39;99865.34;;;19.01;72.98
8051;BME280;4068;42.158;24.732;2023-04-23T07:24:04;99876.09;;;18.76;73.09
8051;BME280;4068;42.158;24.732;2023-04-23T07:26:34;99867.34;;;18.49;74.73
8051;BME280;4068;42.158;24.732;2023-04-23T07:29:00;99863.47;;;18.27;74.41
8051;BME280;4068;42.158;24.732;2023-04-23T07:31:26;99836.75;;;18.01;76.22
8051;BME280;4068;42.158;24.732;2023-04-23T07:33:53;99842.69;;;17.78;76.09
8051;BME280;4068;42.158;24.732;2023-04-23T07:36:18;99862.44;;;17.26;78.67
8051;BME280;4068;42.158;24.732;2023-04-23T07:38:43;99851.81;;;17.16;80.16
8051;BME280;4068;42.158;24.732;2023-04-23T07:41:09;99827.00;;;17.06;79.69
8051;BME280;4068;42.158;24.732;2023-04-23T07:43:34;99823.16;;;16.64;80.54
8051;BME280;4068;42.158;24.732;2023-04-23T07:46:00;99851.22;;;16.60;83.65
8051;BME280;4068;42.158;24.732;2023-04-23T07:48:25;99847.63;;;16.69;83.17
8051;BME280;4068;42.158;24.732;2023-04-23T07:50:51;99833.28;;;16.52;82.28
8051;BME280;4068;42.158;24.732;2023-04-23T07:53:16;99832.56;;;16.68;83.19
8051;BME280;4068;42.158;24.732;2023-04-23T07:55:42;99849.31;;;17.15;82.40
8051;BME280;4068;42.158;24.732;2023-04-23T07:58:07;99851.91;;;17.33;80.52
8051;BME280;4068;42.158;24.732;2023-04-23T08:00:33;99842.78;;;17.52;79.99
8051;BME280;4068;42.158;24.732;2023-04-23T08:02:58;99851.88;;;17.59;79.10
8051;BME280;4068;42.158;24.732;2023-04-23T08:05:24;99826.50;;;17.11;77.76
8051;BME280;4068;42.158;24.732;2023-04-23T08:07:50;99850.56;;;17.02;79.01
8051;BME280;4068;42.158;24.732;2023-04-23T08:10:16;99847.84;;;17.29;79.68
8051;BME280;4068;42.158;24.732;2023-04-23T08:12:41;99846.84;;;17.64;78.33
8051;BME280;4068;42.158;24.732;2023-04-23T08:15:08;99848.88;;;17.70;78.45
8051;BME280;4068;42.158;24.732;2023-04-23T08:17:34;99844.94;;;17.91;77.47
8051;BME280;4068;42.158;24.732;2023-04-23T08:19:59;99818.06;;;17.74;77.23
8051;BME280;4068;42.158;24.732;2023-04-23T08:22:24;99837.19;;;17.88;75.76
8051;BME280;4068;42.158;24.732;2023-04-23T08:24:50;99842.47;;;17.55;75.70
8051;BME280;4068;42.158;24.732;2023-04-23T08:27:15;99834.31;;;17.04;78.96
8051;BME280;4068;42.158;24.732;2023-04-23T08:29:41;99832.03;;;17.09;78.95
8051;BME280;4068;42.158;24.732;2023-04-23T08:32:06;99812.63;;;17.15;78.12
8051;BME280;4068;42.158;24.732;2023-04-23T08:34:31;99832.50;;;17.39;76.34
8051;BME280;4068;42.158;24.732;2023-04-23T08:36:57;99837.00;;;17.38;76.57
8051;BME280;4068;42.158;24.732;2023-04-23T08:39:22;99833.44;;;17.56;76.36
8051;BME280;4068;42.158;24.732;2023-04-23T08:41:53;99835.16;;;17.73;75.23
8051;BME280;4068;42.158;24.732;2023-04-23T08:44:22;99839.06;;;17.45;74.73
8051;BME280;4068;42.158;24.732;2023-04-23T08:46:48;99811.63;;;17.16;76.85
8051;BME280;4068;42.158;24.732;2023-04-23T08:49:15;99824.44;;;17.82;74.54
8051;BME280;4068;42.158;24.732;2023-04-23T08:51:53;99806.75;;;18.05;73.52
8051;BME280;4068;42.158;24.732;2023-04-23T08:54:26;99819.19;;;18.39;72.61
8051;BME280;4068;42.158;24.732;2023-04-23T08:56:57;99809.09;;;18.50;72.33
8051;BME280;4068;42.158;24.732;2023-04-23T08:59:29;99798.19;;;18.84;70.29
8051;BME280;4068;42.158;24.732;2023-04-23T09:01:54;99817.81;;;19.01;68.59
8051;BME280;4068;42.158;24.732;2023-04-23T09:04:21;99782.19;;;18.99;68.59
8051;BME280;4068;42.158;24.732;2023-04-23T09:06:49;99811.00;;;19.30;67.71
8051;BME280;4068;42.158;24.732;2023-04-23T09:09:15;99806.97;;;19.26;66.50
8051;BME280;4068;42.158;24.732;2023-04-23T09:11:43;99809.09;;;18.83;67.25
8051;BME280;4068;42.158;24.732;2023-04-23T09:14:10;99797.53;;;18.66;67.83
8051;BME280;4068;42.158;24.732;2023-04-23T09:16:36;99802.50;;;18.85;64.96
8051;BME280;4068;42.158;24.732;2023-04-23T09:19:06;99804.22;;;18.94;62.81
8051;BME280;4068;42.158;24.732;2023-04-23T09:21:35;99793.31;;;18.96;61.06
8051;BME280;4068;42.158;24.732;2023-04-23T09:24:03;99797.66;;;18.72;58.89
8051;BME280;4068;42.158;24.732;2023-04-23T09:26:29;99806.44;;;18.41;58.80
8051;BME280;4068;42.158;24.732;2023-04-23T09:28:54;99800.34;;;17.98;59.70
8051;BME280;4068;42.158;24.732;2023-04-23T09:31:21;99769.47;;;17.86;59.49
8051;BME280;4068;42.158;24.732;2023-04-23T09:33:53;99794.84;;;18.08;58.49
8051;BME280;4068;42.158;24.732;2023-04-23T09:36:22;99792.34;;;18.15;56.46
8051;BME280;4068;42.158;24.732;2023-04-23T09:38:49;99782.75;;;18.45;56.63
8051;BME280;4068;42.158;24.732;2023-04-23T09:41:21;99784.44;;;18.54;54.80
8051;BME280;4068;42.158;24.732;2023-04-23T09:46:36;99776.88;;;18.66;55.37
8051;BME280;4068;42.158;24.732;2023-04-23T09:49:05;99771.16;;;18.69;54.09
8051;BME280;4068;42.158;24.732;2023-04-23T09:54:16;99769.69;;;18.25;54.56
8051;BME280;4068;42.158;24.732;2023-04-23T09:56:49;99767.84;;;18.09;55.36
8051;BME280;4068;42.158;24.732;2023-04-23T09:59:23;99763.16;;;18.36;55.06
8051;BME280;4068;42.158;24.732;2023-04-23T10:01:50;99752.22;;;18.54;53.62
8051;BME280;4068;42.158;24.732;2023-04-23T10:04:20;99739.44;;;18.65;53.06
8051;BME280;4068;42.158;24.732;2023-04-23T10:06:52;99749.31;;;18.72;54.44
8051;BME280;4068;42.158;24.732;2023-04-23T10:09:17;99748.63;;;18.87;55.16
8051;BME280;4068;42.158;24.732;2023-04-23T10:11:48;99741.88;;;19.07;54.57
8051;BME280;4068;42.158;24.732;2023-04-23T10:14:15;99735.16;;;19.03;53.23
8051;BME280;4068;42.158;24.732;2023-04-23T10:16:43;99717.59;;;18.76;53.75
8051;BME280;4068;42.158;24.732;2023-04-23T10:19:13;99736.88;;;18.79;54.43
8051;BME280;4068;42.158;24.732;2023-04-23T10:21:40;99733.88;;;18.74;54.33
8051;BME280;4068;42.158;24.732;2023-04-23T10:24:08;99723.69;;;18.53;54.72
8051;BME280;4068;42.158;24.732;2023-04-23T10:26:37;99689.84;;;18.36;54.78
8051;BME280;4068;42.158;24.732;2023-04-23T10:29:04;99700.03;;;18.49;54.48
8051;BME280;4068;42.158;24.732;2023-04-23T10:31:31;99692.78;;;18.66;55.45
8051;BME280;4068;42.158;24.732;2023-04-23T10:33:58;99703.66;;;18.89;53.97
8051;BME280;4068;42.158;24.732;2023-04-23T10:36:26;99705.56;;;19.11;53.39
8051;BME280;4068;42.158;24.732;2023-04-23T10:38:52;99696.38;;;18.97;52.28
8051;BME280;4068;42.158;24.732;2023-04-23T10:41:22;99687.75;;;19.10;51.63
8051;BME280;4068;42.158;24.732;2023-04-23T10:43:49;99686.28;;;19.00;51.48
8051;BME280;4068;42.158;24.732;2023-04-23T10:46:27;99702.59;;;18.98;52.35
8051;BME280;4068;42.158;24.732;2023-04-23T10:49:13;99696.41;;;18.81;53.24
8051;BME280;4068;42.158;24.732;2023-04-23T10:51:39;99691.53;;;18.93;52.80
8051;BME280;4068;42.158;24.732;2023-04-23T10:54:08;99685.13;;;18.94;53.88
8051;BME280;4068;42.158;24.732;2023-04-23T10:56:39;99675.59;;;18.91;52.85
8051;BME280;4068;42.158;24.732;2023-04-23T10:59:17;99674.50;;;19.09;53.81
8051;BME280;4068;42.158;24.732;2023-04-23T11:01:51;99667.44;;;19.08;53.11
8051;BME280;4068;42.158;24.732;2023-04-23T11:04:30;99669.94;;;19.41;53.32
8051;BME280;4068;42.158;24.732;2023-04-23T11:07:06;99663.66;;;19.25;52.22
8051;BME280;4068;42.158;24.732;2023-04-23T11:09:42;99668.00;;;19.26;52.05
8051;BME280;4068;42.158;24.732;2023-04-23T11:14:50;99662.50;;;19.97;51.84
8051;BME280;4068;42.158;24.732;2023-04-23T11:17:19;99654.34;;;20.06;50.43
8051;BME280;4068;42.158;24.732;2023-04-23T11:20:07;99631.81;;;19.83;50.82
8051;BME280;4068;42.158;24.732;2023-04-23T11:25:08;99654.00;;;20.39;51.57
8051;BME280;4068;42.158;24.732;2023-04-23T11:27:38;99646.69;;;20.47;50.33
8051;BME280;4068;42.158;24.732;2023-04-23T11:30:04;99654.47;;;20.12;51.29
8051;BME280;4068;42.158;24.732;2023-04-23T11:32:31;99648.13;;;20.05;51.33
8051;BME280;4068;42.158;24.732;2023-04-23T11:34:56;99628.06;;;20.08;50.88
8051;BME280;4068;42.158;24.732;2023-04-23T11:37:24;99642.56;;;20.22;50.10
8051;BME280;4068;42.158;24.732;2023-04-23T11:39:50;99633.47;;;20.23;50.65
8051;BME280;4068;42.158;24.732;2023-04-23T11:42:16;99638.69;;;20.39;50.28
8051;BME280;4068;42.158;24.732;2023-04-23T11:44:44;99639.16;;;20.43;46.00
8051;BME280;4068;42.158;24.732;2023-04-23T11:47:11;99637.84;;;20.53;45.56
8051;BME280;4068;42.158;24.732;2023-04-23T11:49:38;99635.00;;;20.70;45.25
8051;BME280;4068;42.158;24.732;2023-04-23T11:52:04;99616.13;;;20.55;46.13
8051;BME280;4068;42.158;24.732;2023-04-23T11:54:30;99624.50;;;20.75;47.53
8051;BME280;4068;42.158;24.732;2023-04-23T11:56:55;99629.59;;;20.85;46.25
8051;BME280;4068;42.158;24.732;2023-04-23T11:59:22;99605.81;;;20.59;47.26
8051;BME280;4068;42.158;24.732;2023-04-23T12:01:54;99613.44;;;20.40;47.48
8051;BME280;4068;42.158;24.732;2023-04-23T12:04:21;99591.25;;;20.38;46.48
8051;BME280;4068;42.158;24.732;2023-04-23T12:06:48;99587.25;;;20.34;47.07
8051;BME280;4068;42.158;24.732;2023-04-23T12:09:15;99621.41;;;20.48;48.24
8051;BME280;4068;42.158;24.732;2023-04-23T12:11:42;99603.94;;;20.29;48.12
8051;BME280;4068;42.158;24.732;2023-04-23T12:14:09;99599.38;;;20.15;48.59
8051;BME280;4068;42.158;24.732;2023-04-23T12:16:42;99599.94;;;20.10;48.53
8051;BME280;4068;42.158;24.732;2023-04-23T12:19:11;99577.56;;;19.80;48.39
8051;BME280;4068;42.158;24.732;2023-04-23T12:21:54;99593.84;;;19.78;47.90
8051;BME280;4068;42.158;24.732;2023-04-23T12:24:25;99576.59;;;19.49;48.62
8051;BME280;4068;42.158;24.732;2023-04-23T12:26:58;99577.69;;;19.40;49.22
8051;BME280;4068;42.158;24.732;2023-04-23T12:29:25;99569.56;;;19.48;49.30
8051;BME280;4068;42.158;24.732;2023-04-23T12:31:52;99563.53;;;19.85;48.25
8051;BME280;4068;42.158;24.732;2023-04-23T12:34:21;99574.53;;;20.13;46.90
8051;BME280;4068;42.158;24.732;2023-04-23T12:36:47;99568.97;;;19.99;45.89
8051;BME280;4068;42.158;24.732;2023-04-23T12:39:34;99558.53;;;20.26;45.57
8051;BME280;4068;42.158;24.732;2023-04-23T12:42:04;99549.44;;;20.27;46.01
8051;BME280;4068;42.158;24.732;2023-04-23T12:44:34;99523.06;;;20.38;46.64
8051;BME280;4068;42.158;24.732;2023-04-23T12:47:02;99568.16;;;20.80;44.72
8051;BME280;4068;42.158;24.732;2023-04-23T12:49:29;99558.28;;;20.88;44.50
8051;BME280;4068;42.158;24.732;2023-04-23T12:51:55;99562.25;;;21.07;43.21
8051;BME280;4068;42.158;24.732;2023-04-23T12:54:34;99557.38;;;21.17;42.68
8051;BME280;4068;42.158;24.732;2023-04-23T12:57:04;99549.47;;;21.15;42.11
8051;BME280;4068;42.158;24.732;2023-04-23T12:59:31;99553.69;;;21.03;41.86
8051;BME280;4068;42.158;24.732;2023-04-23T13:01:57;99549.97;;;21.04;41.92
8051;BME280;4068;42.158;24.732;2023-04-23T13:04:29;99544.78;;;21.24;40.74
8051;BME280;4068;42.158;24.732;2023-04-23T13:06:55;99542.22;;;21.59;42.16
8051;BME280;4068;42.158;24.732;2023-04-23T13:09:21;99555.88;;;21.36;42.86
8051;BME280;4068;42.158;24.732;2023-04-23T13:11:49;99520.41;;;21.11;41.56
8051;BME280;4068;42.158;24.732;2023-04-23T13:14:15;99548.50;;;21.23;41.67
8051;BME280;4068;42.158;24.732;2023-04-23T13:16:44;99545.94;;;21.36;41.30